Time;durP1;ratioP1;P1;durP2;ratioP2;P2;SDS_P1;SDS_P2;PMS_P1;PMS_P2;Temp;Humidity;BMP_temperature;BMP_pressure;BME280_temperature;BME280_humidity;BME280_pressure;Samples;Min_cycle;Max_cycle;Signal;HPM_P1;HPM_P2
2023/09/09 00:01:26;;;;;;;5.05;4.05;;;24.00;99.90;;;;;;4134003;28;20511;-69
2023/09/09 00:03:27;;;;;;;5.45;3.92;;;24.00;99.90;;;;;;4140146;28;20033;-71
2023/09/09 00:05:31;;;;;;;5.63;3.85;;;24.00;99.90;;;;;;4160636;28;20110;-66
2023/09/09 00:07:32;;;;;;;5.32;3.90;;;24.00;99.90;;;;;;4150188;28;20084;-68
2023/09/09 00:09:33;;;;;;;5.32;4.53;;;24.00;99.90;;;;;;4142931;28;20054;-67
2023/09/09 00:11:33;;;;;;;4.03;3.40;;;23.90;99.90;;;;;;4147213;28;20083;-68
2023/09/09 00:13:34;;;;;;;4.75;3.88;;;24.00;99.90;;;;;;4151248;28;20087;-67
2023/09/09 00:15:35;;;;;;;4.45;3.80;;;23.90;99.90;;;;;;4138291;28;20475;-68
2023/09/09 00:17:35;;;;;;;6.03;4.25;;;23.90;99.90;;;;;;4138291;28;20542;-67
2023/09/09 00:19:36;;;;;;;5.18;3.85;;;23.90;99.90;;;;;;4152834;28;20382;-67
2023/09/09 00:21:37;;;;;;;4.85;3.78;;;23.80;99.90;;;;;;4152513;28;20065;-67
2023/09/09 00:23:38;;;;;;;6.40;4.53;;;23.80;99.90;;;;;;4147101;28;20065;-70
2023/09/09 00:25:40;;;;;;;5.85;4.10;;;23.80;99.90;;;;;;4140049;28;20030;-65
2023/09/09 00:27:41;;;;;;;;;;;23.80;99.90;;;;;;4138195;28;20133;-68
2023/09/09 00:29:41;;;;;;;3.95;3.55;;;23.70;99.90;;;;;;4134735;28;19910;-67
2023/09/09 00:31:42;;;;;;;5.45;4.03;;;23.80;99.90;;;;;;4125218;28;20030;-68
2023/09/09 00:33:43;;;;;;;4.38;3.47;;;23.70;99.90;;;;;;4132136;28;20109;-66
2023/09/09 00:35:43;;;;;;;5.38;4.18;;;23.70;99.90;;;;;;4149377;28;20109;-68
2023/09/09 00:37:44;;;;;;;5.05;4.00;;;23.70;99.90;;;;;;4138582;28;20033;-67
2023/09/09 00:39:45;;;;;;;5.43;4.13;;;23.70;99.90;;;;;;4146473;28;20038;-66
2023/09/09 00:41:45;;;;;;;6.95;4.03;;;23.60;99.90;;;;;;4143445;28;20462;-67
2023/09/09 00:43:46;;;;;;;8.75;4.88;;;23.50;99.90;;;;;;4131614;28;20034;-68
2023/09/09 00:45:47;;;;;;;5.78;4.50;;;23.50;99.90;;;;;;4151669;28;20042;-66
2023/09/09 00:47:47;;;;;;;6.32;4.47;;;23.40;99.90;;;;;;4137943;28;20570;-68
2023/09/09 00:49:48;;;;;;;6.55;4.70;;;23.40;99.90;;;;;;4143818;28;20046;-67
2023/09/09 00:51:49;;;;;;;5.15;4.28;;;23.40;99.90;;;;;;4137835;28;20407;-67
2023/09/09 00:53:49;;;;;;;5.38;4.30;;;23.30;99.90;;;;;;4142330;28;20042;-67
2023/09/09 00:55:51;;;;;;;5.30;4.22;;;23.30;99.90;;;;;;4158942;28;20037;-67
2023/09/09 00:57:52;;;;;;;5.68;4.30;;;23.30;99.90;;;;;;4148100;28;20133;-68
2023/09/09 00:59:52;;;;;;;5.43;4.32;;;23.30;99.90;;;;;;4150017;28;20490;-66
2023/09/09 01:01:53;;;;;;;5.88;4.30;;;23.20;99.90;;;;;;4145791;28;20095;-66
2023/09/09 01:03:54;;;;;;;6.00;4.75;;;23.30;99.90;;;;;;4127929;28;20403;-65
2023/09/09 01:05:56;;;;;;;5.53;4.10;;;23.20;99.90;;;;;;4154125;28;20410;-65
2023/09/09 01:07:56;;;;;;;5.13;3.97;;;23.20;99.90;;;;;;4147932;28;20553;-66
2023/09/09 01:09:57;;;;;;;6.28;4.28;;;23.20;99.90;;;;;;4142848;28;20038;-66
2023/09/09 01:12:01;;;;;;;5.60;4.57;;;23.20;99.90;;;;;;4141729;28;20446;-66
2023/09/09 01:14:02;;;;;;;6.63;4.75;;;23.20;99.90;;;;;;4142208;28;20037;-65
2023/09/09 01:16:03;;;;;;;6.55;4.78;;;23.20;99.90;;;;;;4148008;28;20056;-65
2023/09/09 01:18:04;;;;;;;6.53;4.90;;;23.20;99.90;;;;;;4131531;28;20062;-65
2023/09/09 01:20:12;;;;;;;4.70;4.10;;;23.20;99.90;;;;;;4140483;28;20026;-65
2023/09/09 01:22:18;;;;;;;6.07;4.35;;;23.20;99.90;;;;;;4152289;28;20125;-66
2023/09/09 01:24:19;;;;;;;4.32;3.92;;;23.20;99.90;;;;;;4141789;28;20076;-67
2023/09/09 01:26:20;;;;;;;6.20;4.78;;;23.20;99.90;;;;;;4157157;28;20029;-66
2023/09/09 01:28:22;;;;;;;5.97;4.72;;;23.20;99.90;;;;;;4151244;28;20755;-66
2023/09/09 01:30:23;;;;;;;5.47;4.40;;;23.10;99.90;;;;;;4139710;28;20037;-66
2023/09/09 01:32:23;;;;;;;6.35;4.90;;;23.10;99.90;;;;;;4135551;28;20443;-66
2023/09/09 01:34:24;;;;;;;6.53;4.60;;;23.10;99.90;;;;;;4135726;28;20085;-66
2023/09/09 01:36:25;;;;;;;4.75;4.00;;;23.10;99.90;;;;;;4142834;28;20030;-65
2023/09/09 01:38:25;;;;;;;8.38;5.03;;;23.10;99.90;;;;;;4142473;28;20395;-65
2023/09/09 01:40:26;;;;;;;5.65;4.20;;;23.10;99.90;;;;;;4150138;28;20118;-65
2023/09/09 01:42:26;;;;;;;5.75;4.50;;;23.10;99.90;;;;;;4175294;28;20490;-65
2023/09/09 01:44:27;;;;;;;5.72;4.72;;;23.10;99.90;;;;;;4135206;28;20395;-66
2023/09/09 01:46:28;;;;;;;5.35;4.85;;;23.10;99.90;;;;;;4126810;28;20031;-65
2023/09/09 01:48:28;;;;;;;5.90;4.90;;;23.00;99.90;;;;;;4141670;28;20034;-65
2023/09/09 01:50:29;;;;;;;7.25;4.63;;;23.00;99.90;;;;;;4141672;28;20034;-66
2023/09/09 01:52:29;;;;;;;6.43;4.75;;;23.00;99.90;;;;;;4142947;28;20384;-66
2023/09/09 01:54:30;;;;;;;6.28;4.90;;;23.00;99.90;;;;;;4115201;28;20256;-65
2023/09/09 01:56:31;;;;;;;9.02;5.18;;;23.00;99.90;;;;;;4152424;28;20033;-66
2023/09/09 01:58:31;;;;;;;5.72;4.63;;;23.00;99.90;;;;;;4148802;28;20072;-72
2023/09/09 02:00:32;;;;;;;7.00;5.40;;;23.00;99.90;;;;;;4140573;28;20029;-72
2023/09/09 02:02:33;;;;;;;6.22;4.80;;;23.00;99.90;;;;;;4160460;28;20449;-72
2023/09/09 02:04:34;;;;;;;5.15;4.57;;;23.00;99.90;;;;;;4139932;28;20030;-71
2023/09/09 02:06:34;;;;;;;5.75;4.43;;;23.00;99.90;;;;;;4150626;28;20124;-71
2023/09/09 02:08:35;;;;;;;6.45;4.40;;;22.90;99.90;;;;;;4153529;28;20036;-68
2023/09/09 02:10:36;;;;;;;5.68;4.32;;;22.90;99.90;;;;;;4143148;28;20385;-69
2023/09/09 02:12:36;;;;;;;6.85;4.20;;;22.90;99.90;;;;;;4158977;28;20052;-69
2023/09/09 02:14:37;;;;;;;4.88;4.40;;;22.80;99.90;;;;;;4141232;28;20026;-69
2023/09/09 02:16:37;;;;;;;5.15;4.20;;;22.80;99.90;;;;;;4129172;28;20035;-68
2023/09/09 02:18:39;;;;;;;5.82;4.30;;;22.80;99.90;;;;;;4127385;28;20270;-68
2023/09/09 02:20:40;;;;;;;5.93;4.53;;;22.80;99.90;;;;;;4129895;28;20026;-69
2023/09/09 02:22:41;;;;;;;6.75;4.80;;;22.80;99.90;;;;;;4133816;28;20100;-68
2023/09/09 02:24:41;;;;;;;6.85;4.82;;;22.70;99.90;;;;;;4146724;28;20037;-69
2023/09/09 02:26:42;;;;;;;6.55;4.00;;;22.70;99.90;;;;;;4142393;28;20046;-69
2023/09/09 02:28:45;;;;;;;7.47;4.53;;;22.70;99.90;;;;;;4141599;28;20407;-68
2023/09/09 02:30:45;;;;;;;7.07;4.93;;;22.80;99.90;;;;;;4133857;28;20038;-68
2023/09/09 02:32:46;;;;;;;6.93;4.57;;;22.70;99.90;;;;;;4146303;28;20077;-68
2023/09/09 02:34:47;;;;;;;5.18;4.38;;;22.70;99.90;;;;;;4144739;28;20034;-68
2023/09/09 02:37:11;;;;;;;6.03;4.30;;;22.70;99.90;;;;;;4149276;28;20034;-68
2023/09/09 02:39:12;;;;;;;5.05;3.88;;;22.70;99.90;;;;;;4143096;28;20406;-69
2023/09/09 02:41:12;;;;;;;5.22;4.55;;;22.70;99.90;;;;;;4145951;28;20053;-68
2023/09/09 02:43:13;;;;;;;5.32;4.10;;;22.70;99.90;;;;;;4146724;28;20051;-69
2023/09/09 02:45:14;;;;;;;6.78;4.60;;;22.60;99.90;;;;;;4132694;28;20022;-68
2023/09/09 02:47:15;;;;;;;5.50;4.57;;;22.60;99.90;;;;;;4140775;28;20506;-69
2023/09/09 02:49:15;;;;;;;4.70;4.18;;;22.60;99.90;;;;;;4153103;28;20168;-68
2023/09/09 02:51:16;;;;;;;5.50;4.03;;;22.60;99.90;;;;;;4144759;28;20034;-68
2023/09/09 02:53:17;;;;;;;6.57;4.35;;;22.60;99.90;;;;;;4152602;28;20040;-68
2023/09/09 02:55:17;;;;;;;5.10;4.43;;;22.50;99.90;;;;;;4141540;28;20034;-68
2023/09/09 02:57:18;;;;;;;5.93;4.45;;;22.50;99.90;;;;;;4140715;28;20477;-68
2023/09/09 02:59:18;;;;;;;6.40;4.95;;;22.50;99.90;;;;;;4140615;28;20034;-68
2023/09/09 03:01:19;;;;;;;5.63;4.30;;;22.50;99.90;;;;;;4149406;28;20038;-68
2023/09/09 03:03:22;;;;;;;6.40;4.68;;;22.50;99.90;;;;;;4138030;28;20034;-69
2023/09/09 03:05:23;;;;;;;5.88;4.55;;;22.50;99.90;;;;;;4128497;28;20100;-68
2023/09/09 03:07:24;;;;;;;8.90;4.47;;;22.50;99.90;;;;;;4136822;28;20426;-68
2023/09/09 03:09:25;;;;;;;6.28;4.60;;;22.40;99.90;;;;;;4137755;28;20038;-65
2023/09/09 03:11:27;;;;;;;5.70;4.40;;;22.40;99.90;;;;;;4144436;28;20061;-67
2023/09/09 03:13:27;;;;;;;6.82;4.47;;;22.40;99.90;;;;;;4141419;28;20446;-65
2023/09/09 03:15:28;;;;;;;5.82;4.28;;;22.40;99.90;;;;;;4141652;28;20038;-67
2023/09/09 03:17:30;;;;;;;5.70;4.30;;;22.40;99.90;;;;;;4144977;28;20379;-65
2023/09/09 03:19:30;;;;;;;5.45;4.20;;;22.40;99.90;;;;;;4130099;28;20035;-66
2023/09/09 03:21:31;;;;;;;7.30;4.32;;;22.40;99.90;;;;;;4129043;28;20049;-66
2023/09/09 03:23:32;;;;;;;6.72;4.40;;;22.30;99.90;;;;;;4133106;28;20057;-66
2023/09/09 03:25:32;;;;;;;6.72;4.20;;;22.30;99.90;;;;;;4145210;28;20052;-66
2023/09/09 03:27:33;;;;;;;4.70;3.83;;;22.30;99.90;;;;;;4143812;28;20092;-67
2023/09/09 03:29:34;;;;;;;5.97;4.57;;;22.30;99.90;;;;;;4140408;28;20079;-66
2023/09/09 03:31:35;;;;;;;6.85;4.25;;;22.30;99.90;;;;;;4129689;28;20034;-66
2023/09/09 03:33:35;;;;;;;6.45;4.30;;;22.30;99.90;;;;;;4136108;28;20415;-66
2023/09/09 03:35:36;;;;;;;4.90;4.10;;;22.30;99.90;;;;;;4144915;28;20121;-66
2023/09/09 03:37:36;;;;;;;7.32;4.45;;;22.20;99.90;;;;;;4151200;28;20037;-67
2023/09/09 03:39:37;;;;;;;5.68;4.30;;;22.20;99.90;;;;;;4137701;28;20483;-67
2023/09/09 03:41:40;;;;;;;5.15;3.95;;;22.20;99.90;;;;;;4143295;28;20041;-66
2023/09/09 03:43:41;;;;;;;7.20;4.63;;;22.20;99.90;;;;;;4152643;28;20040;-66
2023/09/09 03:45:42;;;;;;;5.47;4.00;;;22.20;99.90;;;;;;4150545;28;20526;-70
2023/09/09 03:47:43;;;;;;;5.72;4.25;;;22.20;99.90;;;;;;4129624;28;20031;-66
2023/09/09 03:49:43;;;;;;;5.30;4.05;;;22.20;99.90;;;;;;4156090;28;20042;-66
2023/09/09 03:51:44;;;;;;;5.90;4.35;;;22.20;99.90;;;;;;4160361;28;20046;-67
2023/09/09 03:53:45;;;;;;;5.53;4.40;;;22.10;99.90;;;;;;4153591;28;20041;-67
2023/09/09 03:55:46;;;;;;;5.15;4.22;;;22.10;99.90;;;;;;4145145;28;20496;-69
2023/09/09 03:57:46;;;;;;;5.20;4.15;;;22.10;99.90;;;;;;4143280;28;20065;-68
2023/09/09 03:59:47;;;;;;;6.68;4.80;;;22.10;99.90;;;;;;4145239;28;20034;-68
2023/09/09 04:01:48;;;;;;;6.32;4.70;;;22.10;99.90;;;;;;4129423;28;20034;-68
2023/09/09 04:03:49;;;;;;;5.80;4.45;;;22.00;99.90;;;;;;4135109;28;20034;-67
2023/09/09 04:05:50;;;;;;;10.25;5.13;;;22.00;99.90;;;;;;4143534;28;20034;-66
2023/09/09 04:07:51;;;;;;;6.13;4.50;;;22.00;99.90;;;;;;4143557;28;20049;-66
2023/09/09 04:09:53;;;;;;;6.13;4.72;;;22.00;99.90;;;;;;4136715;28;20041;-66
2023/09/09 04:11:54;;;;;;;7.80;5.05;;;22.00;99.90;;;;;;4135222;28;20038;-66
2023/09/09 04:13:54;;;;;;;7.50;4.78;;;21.90;99.90;;;;;;4137520;28;20411;-67
2023/09/09 04:15:56;;;;;;;5.57;4.63;;;21.90;99.90;;;;;;4125736;28;20089;-67
2023/09/09 04:17:57;;;;;;;5.03;3.80;;;21.90;99.90;;;;;;4127968;28;20053;-68
2023/09/09 04:19:57;;;;;;;5.00;3.95;;;21.90;99.90;;;;;;4147488;28;20406;-66
2023/09/09 04:21:58;;;;;;;5.07;3.85;;;21.70;99.90;;;;;;4160346;28;20108;-66
2023/09/09 04:27:42;;;;;;;5.35;3.97;;;21.70;99.90;;;;;;4145616;28;20097;-68
2023/09/09 04:29:43;;;;;;;7.15;4.15;;;21.60;99.90;;;;;;4134517;28;20042;-72
2023/09/09 04:31:43;;;;;;;6.45;3.90;;;21.70;99.90;;;;;;4135151;28;20479;-70
2023/09/09 04:33:44;;;;;;;6.35;4.45;;;21.60;99.90;;;;;;4134860;28;20427;-71
2023/09/09 04:35:45;;;;;;;5.90;4.53;;;21.70;99.90;;;;;;4133840;28;20100;-71
2023/09/09 04:37:45;;;;;;;6.03;4.40;;;21.60;99.90;;;;;;4143677;28;20038;-71
2023/09/09 04:39:46;;;;;;;5.18;4.15;;;21.70;99.90;;;;;;4134538;28;20040;-71
2023/09/09 04:41:47;;;;;;;5.75;4.32;;;21.70;99.90;;;;;;4133466;28;20038;-69
2023/09/09 04:43:47;;;;;;;5.53;4.30;;;21.60;99.90;;;;;;4130388;28;20049;-71
2023/09/09 04:45:48;;;;;;;6.07;4.20;;;21.60;99.90;;;;;;4133765;28;20034;-70
2023/09/09 04:47:50;;;;;;;4.80;4.20;;;21.60;99.90;;;;;;4135842;28;20496;-72
2023/09/09 04:49:51;;;;;;;7.00;4.07;;;21.60;99.90;;;;;;4136800;28;20034;-72
2023/09/09 04:51:52;;;;;;;7.15;4.63;;;21.60;99.90;;;;;;4133570;28;20030;-72
2023/09/09 04:53:53;;;;;;;5.90;4.45;;;21.60;99.90;;;;;;4129543;28;20065;-72
2023/09/09 04:55:53;;;;;;;9.32;4.40;;;21.60;99.90;;;;;;4135833;28;20514;-72
2023/09/09 04:57:54;;;;;;;5.28;4.50;;;21.60;99.90;;;;;;4133838;28;20442;-72
2023/09/09 04:59:54;;;;;;;4.93;3.70;;;21.60;99.90;;;;;;4144153;28;20053;-68
2023/09/09 05:01:55;;;;;;;5.47;4.43;;;21.60;99.90;;;;;;4133886;28;20034;-72
2023/09/09 05:03:56;;;;;;;7.85;4.50;;;21.60;99.90;;;;;;4133671;28;20025;-71
2023/09/09 05:05:57;;;;;;;7.15;4.70;;;21.50;99.90;;;;;;4135994;28;20485;-71
2023/09/09 05:07:57;;;;;;;5.95;4.30;;;21.60;99.90;;;;;;4133318;28;20034;-68
2023/09/09 05:09:58;;;;;;;5.60;4.53;;;21.50;99.90;;;;;;4141548;28;20037;-72
2023/09/09 05:11:59;;;;;;;6.80;4.78;;;21.50;99.90;;;;;;4139225;28;20033;-71
2023/09/09 05:13:59;;;;;;;6.15;4.78;;;21.50;99.90;;;;;;4144040;28;20483;-72
2023/09/09 05:16:00;;;;;;;7.30;4.70;;;21.50;99.90;;;;;;4144383;28;20030;-72
2023/09/09 05:18:01;;;;;;;5.07;4.43;;;21.50;99.90;;;;;;4141401;28;20534;-72
2023/09/09 05:20:02;;;;;;;6.15;4.70;;;21.50;99.90;;;;;;4140215;28;20034;-72
2023/09/09 05:22:03;;;;;;;5.20;4.53;;;21.50;99.90;;;;;;4138681;28;20037;-71
2023/09/09 05:24:04;;;;;;;6.38;4.40;;;21.50;99.90;;;;;;4144140;28;20130;-72
2023/09/09 05:26:04;;;;;;;5.70;4.30;;;21.50;99.90;;;;;;4141160;28;20057;-72
2023/09/09 05:28:05;;;;;;;4.68;4.15;;;21.50;99.90;;;;;;4105360;28;20056;-72
2023/09/09 05:30:07;;;;;;;4.95;3.90;;;21.50;99.90;;;;;;4020934;28;20077;-72
2023/09/09 05:32:07;;;;;;;5.10;4.20;;;21.50;99.90;;;;;;4037088;28;20364;-71
2023/09/09 05:34:08;;;;;;;6.32;4.13;;;21.40;99.90;;;;;;4059277;28;20091;-72
2023/09/09 05:36:09;;;;;;;5.25;4.35;;;21.40;99.90;;;;;;4034253;28;20041;-72
2023/09/09 05:38:10;;;;;;;7.05;4.15;;;21.40;99.90;;;;;;4059565;28;20022;-66
2023/09/09 05:40:11;;;;;;;5.80;4.88;;;21.40;99.90;;;;;;4034916;28;20043;-66
2023/09/09 05:42:12;;;;;;;5.80;4.32;;;21.40;99.90;;;;;;4089897;28;20083;-65
2023/09/09 05:44:12;;;;;;;5.78;4.57;;;21.40;99.90;;;;;;4125123;28;20030;-65
2023/09/09 05:46:14;;;;;;;6.43;5.03;;;21.40;99.90;;;;;;4153337;28;20026;-66
2023/09/09 05:48:15;;;;;;;6.45;4.65;;;21.40;99.90;;;;;;4139082;28;20718;-64
2023/09/09 05:50:15;;;;;;;5.70;4.53;;;21.40;99.90;;;;;;4135465;28;20467;-64
2023/09/09 05:52:16;;;;;;;6.32;4.85;;;21.50;99.90;;;;;;4147608;28;20038;-64
2023/09/09 05:54:16;;;;;;;5.07;4.32;;;21.50;99.90;;;;;;4154652;28;20041;-64
2023/09/09 05:56:17;;;;;;;6.45;5.00;;;21.50;99.90;;;;;;4145817;28;20536;-63
2023/09/09 05:58:18;;;;;;;5.72;4.63;;;21.50;99.90;;;;;;4145357;28;20035;-65
2023/09/09 06:00:20;;;;;;;7.28;5.30;;;21.50;99.90;;;;;;4136032;28;20049;-65
2023/09/09 06:02:20;;;;;;;6.93;5.10;;;21.50;99.90;;;;;;4131888;28;20069;-65
2023/09/09 06:04:21;;;;;;;7.32;5.10;;;21.50;99.90;;;;;;4129773;28;20026;-66
2023/09/09 06:06:22;;;;;;;6.93;5.40;;;21.50;99.90;;;;;;4133643;28;20540;-65
2023/09/09 06:08:23;;;;;;;7.35;5.65;;;21.50;99.90;;;;;;4137124;28;20026;-65
2023/09/09 06:10:24;;;;;;;8.07;5.10;;;21.50;99.90;;;;;;4138542;28;20159;-65
2023/09/09 06:12:24;;;;;;;7.53;5.32;;;21.50;99.90;;;;;;4141781;28;20038;-65
2023/09/09 06:14:25;;;;;;;6.88;5.70;;;21.50;99.90;;;;;;4137351;28;20084;-65
2023/09/09 06:16:26;;;;;;;7.10;5.55;;;21.50;99.90;;;;;;4123380;28;20488;-64
2023/09/09 06:18:26;;;;;;;7.50;5.40;;;21.50;99.90;;;;;;4143456;28;20458;-66
2023/09/09 06:20:27;;;;;;;7.10;5.55;;;21.50;99.90;;;;;;4126923;28;20688;-67
2023/09/09 06:22:28;;;;;;;5.55;4.63;;;21.60;99.90;;;;;;4132608;28;20362;-65
2023/09/09 06:24:28;;;;;;;8.68;5.38;;;21.60;99.90;;;;;;4129688;28;20022;-65
2023/09/09 06:26:32;;;;;;;6.30;4.70;;;21.70;99.90;;;;;;4139486;28;20475;-65
2023/09/09 06:28:34;;;;;;;5.97;4.80;;;21.80;99.90;;;;;;4137944;28;20038;-66
2023/09/09 06:30:34;;;;;;;5.88;5.00;;;22.00;99.90;;;;;;4137468;28;20062;-66
2023/09/09 06:32:35;;;;;;;7.13;4.95;;;22.20;99.90;;;;;;4139723;28;20045;-65
2023/09/09 06:34:36;;;;;;;5.88;4.20;;;22.40;99.90;;;;;;4154126;28;20091;-66
2023/09/09 06:36:37;;;;;;;8.35;4.80;;;22.60;99.90;;;;;;4133891;28;20161;-65
2023/09/09 06:38:37;;;;;;;5.57;4.63;;;22.80;99.90;;;;;;4139357;28;20054;-65
2023/09/09 06:40:38;;;;;;;5.35;4.43;;;23.10;99.90;;;;;;4128169;28;20114;-65
2023/09/09 06:42:38;;;;;;;7.43;4.80;;;23.40;99.90;;;;;;4135905;28;20492;-66
2023/09/09 06:44:39;;;;;;;5.53;4.45;;;23.60;99.90;;;;;;4134501;28;20446;-66
2023/09/09 06:46:39;;;;;;;5.68;4.50;;;23.90;99.90;;;;;;4133930;28;20053;-66
2023/09/09 06:48:40;;;;;;;7.93;4.60;;;24.20;99.90;;;;;;4131274;28;20777;-66
2023/09/09 06:50:41;;;;;;;9.80;4.95;;;24.40;99.90;;;;;;4130750;28;20598;-66
2023/09/09 06:52:41;;;;;;;8.68;5.35;;;24.70;99.90;;;;;;4141986;28;20034;-68
2023/09/09 06:54:43;;;;;;;6.65;5.35;;;24.90;99.90;;;;;;4133542;28;20451;-66
2023/09/09 06:56:44;;;;;;;7.65;5.43;;;25.10;99.90;;;;;;4126037;28;20408;-66
2023/09/09 06:58:44;;;;;;;7.57;5.10;;;25.30;99.90;;;;;;4135571;28;20030;-66
2023/09/09 07:00:52;;;;;;;6.50;5.20;;;25.40;99.90;;;;;;4143853;28;20042;-66
2023/09/09 07:02:52;;;;;;;7.10;5.20;;;25.60;99.90;;;;;;4126816;28;20125;-68
2023/09/09 07:04:53;;;;;;;8.00;5.80;;;25.80;99.90;;;;;;4121488;28;20058;-68
2023/09/09 07:06:54;;;;;;;8.13;5.57;;;25.90;99.90;;;;;;4131238;28;20026;-66
2023/09/09 07:08:55;;;;;;;8.82;5.00;;;26.00;99.90;;;;;;4137064;28;20031;-66
2023/09/09 07:10:56;;;;;;;6.03;4.57;;;26.20;99.90;;;;;;4133788;28;20076;-66
2023/09/09 07:12:57;;;;;;;6.43;4.30;;;26.30;99.90;;;;;;4142055;28;20530;-66
2023/09/09 07:14:57;;;;;;;6.85;4.75;;;26.50;99.90;;;;;;4152130;28;20108;-66
2023/09/09 07:16:58;;;;;;;7.75;5.00;;;26.60;99.90;;;;;;4140175;28;20038;-68
2023/09/09 07:18:58;;;;;;;6.75;4.70;;;26.80;99.90;;;;;;4166458;28;20029;-66
2023/09/09 07:20:59;;;;;;;8.95;5.05;;;26.90;99.90;;;;;;4142856;28;20381;-66
2023/09/09 07:23:00;;;;;;;6.00;4.93;;;27.10;99.90;;;;;;4129837;28;20038;-67
2023/09/09 07:25:00;;;;;;;5.30;4.32;;;27.20;99.90;;;;;;4148742;28;20497;-65
2023/09/09 07:27:04;;;;;;;6.25;4.80;;;27.30;99.90;;;;;;4141678;28;20426;-66
2023/09/09 07:29:05;;;;;;;7.28;5.10;;;27.50;99.90;;;;;;4139738;28;20033;-66
2023/09/09 07:31:06;;;;;;;9.70;5.97;;;27.60;99.90;;;;;;4142118;28;20395;-65
2023/09/09 07:33:07;;;;;;;7.57;5.30;;;27.60;99.50;;;;;;4145833;28;20038;-66
2023/09/09 07:35:08;;;;;;;7.68;5.10;;;27.70;99.80;;;;;;4136176;28;20034;-66
2023/09/09 07:37:08;;;;;;;7.80;5.50;;;27.70;99.60;;;;;;4139571;28;20487;-66
2023/09/09 07:39:09;;;;;;;7.68;5.03;;;27.80;99.50;;;;;;4140701;28;20385;-66
2023/09/09 07:41:09;;;;;;;7.15;4.68;;;27.90;99.60;;;;;;4139827;28;20743;-66
2023/09/09 07:43:10;;;;;;;8.35;5.25;;;28.10;99.80;;;;;;4144059;28;20402;-66
2023/09/09 07:45:11;;;;;;;6.88;5.18;;;28.20;99.20;;;;;;4148453;28;20050;-67
2023/09/09 07:47:12;;;;;;;6.85;5.47;;;28.30;99.30;;;;;;4136381;28;20034;-66
2023/09/09 07:49:13;;;;;;;7.85;5.40;;;28.40;99.10;;;;;;4142078;28;20034;-68
2023/09/09 07:51:14;;;;;;;10.07;5.67;;;28.40;98.80;;;;;;4136186;28;20116;-66
2023/09/09 07:53:14;;;;;;;8.15;5.60;;;28.50;98.90;;;;;;4134802;28;20069;-66
2023/09/09 07:55:15;;;;;;;9.25;6.25;;;28.50;98.50;;;;;;4128967;28;20027;-66
2023/09/09 07:57:16;;;;;;;10.18;6.30;;;28.60;98.20;;;;;;4127860;28;20038;-67
2023/09/09 07:59:16;;;;;;;7.97;6.22;;;28.50;98.20;;;;;;4137550;28;20398;-66
2023/09/09 08:01:17;;;;;;;9.23;6.90;;;28.50;98.30;;;;;;4134196;28;20033;-66
2023/09/09 08:03:17;;;;;;;8.52;6.97;;;28.40;98.30;;;;;;4136240;28;20045;-66
2023/09/09 08:05:18;;;;;;;9.98;6.80;;;28.40;98.20;;;;;;4134222;28;20045;-66
2023/09/09 08:07:19;;;;;;;9.48;7.43;;;28.40;98.40;;;;;;4136764;28;20049;-66
2023/09/09 08:09:23;;;;;;;8.73;6.18;;;28.40;98.60;;;;;;4141746;28;20037;-66
2023/09/09 08:11:23;;;;;;;10.48;6.80;;;28.30;98.90;;;;;;4144586;28;20042;-66
2023/09/09 08:13:27;;;;;;;10.23;6.15;;;28.40;99.10;;;;;;4136033;28;20049;-65
2023/09/09 08:15:27;;;;;;;6.57;5.68;;;28.40;99.00;;;;;;4129019;28;20090;-65
2023/09/09 08:17:28;;;;;;;9.68;5.60;;;28.40;98.90;;;;;;4128971;28;20030;-65
2023/09/09 08:19:30;;;;;;;10.43;6.30;;;28.50;99.40;;;;;;4133245;28;20373;-69
2023/09/09 08:21:30;;;;;;;11.50;6.10;;;28.60;99.40;;;;;;4134773;28;20037;-65
2023/09/09 08:23:32;;;;;;;6.80;5.85;;;28.60;99.30;;;;;;4137940;28;20037;-67
2023/09/09 08:25:33;;;;;;;8.80;6.27;;;28.60;99.40;;;;;;4137808;28;20038;-68
2023/09/09 08:27:33;;;;;;;5.93;4.90;;;28.50;99.10;;;;;;4138766;28;20069;-66
2023/09/09 08:29:34;;;;;;;8.32;5.55;;;28.60;99.50;;;;;;4139551;28;20038;-65
2023/09/09 08:31:35;;;;;;;8.82;6.05;;;28.70;99.80;;;;;;4135465;28;20041;-67
2023/09/09 08:33:36;;;;;;;9.37;6.97;;;28.80;99.50;;;;;;4136805;28;20137;-65
2023/09/09 08:35:37;;;;;;;8.18;6.10;;;28.80;99.40;;;;;;4141686;28;20626;-68
2023/09/09 08:37:37;;;;;;;8.85;7.10;;;28.80;99.40;;;;;;4126428;28;20038;-65
2023/09/09 08:39:38;;;;;;;10.13;7.78;;;28.90;99.40;;;;;;4090147;28;20068;-68
2023/09/09 08:42:00;;;;;;;15.82;8.98;;;28.90;99.40;;;;;;4130189;28;20018;-65
2023/09/09 08:44:14;;;;;;;12.23;8.18;;;28.90;99.30;;;;;;4137164;28;20049;-65
2023/09/09 08:46:19;;;;;;;10.15;8.02;;;28.90;99.50;;;;;;4137133;28;20038;-66
2023/09/09 08:48:23;;;;;;;6.63;5.82;;;28.90;99.40;;;;;;4114685;28;20041;-66
2023/09/09 08:50:25;;;;;;;11.18;7.63;;;29.00;99.90;;;;;;4129722;28;20034;-67
2023/09/09 08:52:27;;;;;;;11.13;7.70;;;29.00;99.70;;;;;;4131663;28;20656;-67
2023/09/09 08:54:28;;;;;;;;;;;29.10;99.70;;;;;;4056718;28;20498;-66
2023/09/09 08:56:29;;;;;;;10.20;7.70;;;29.10;99.50;;;;;;4126509;28;19963;-65
2023/09/09 08:58:30;;;;;;;9.75;8.32;;;29.20;99.70;;;;;;4093675;28;20057;-66
2023/09/09 09:00:34;;;;;;;11.60;8.23;;;29.20;99.60;;;;;;4137797;28;20044;-67
2023/09/09 09:02:35;;;;;;;8.75;7.05;;;29.30;99.50;;;;;;4078442;28;20422;-70
2023/09/09 09:04:36;;;;;;;11.88;8.15;;;29.30;99.90;;;;;;4137593;28;20026;-68
2023/09/09 09:06:38;;;;;;;9.23;7.53;;;29.40;99.80;;;;;;4136896;28;20487;-67
2023/09/09 09:08:38;;;;;;;12.02;9.45;;;29.40;99.80;;;;;;4134198;28;20487;-70
2023/09/09 09:10:42;;;;;;;10.52;8.88;;;29.50;99.40;;;;;;4136822;28;20084;-66
2023/09/09 09:12:44;;;;;;;11.73;9.30;;;29.50;99.50;;;;;;4135052;28;20033;-66
2023/09/09 09:14:46;;;;;;;10.50;8.43;;;29.50;99.60;;;;;;4139393;28;20069;-65
2023/09/09 09:16:48;;;;;;;11.07;8.50;;;29.50;99.50;;;;;;4135297;28;20042;-65
2023/09/09 09:18:48;;;;;;;10.25;8.05;;;29.60;99.40;;;;;;4136265;28;20045;-72
2023/09/09 09:20:51;;;;;;;10.45;7.38;;;29.60;99.60;;;;;;4117596;28;20037;-73
2023/09/09 09:22:56;;;;;;;10.93;7.70;;;29.60;99.50;;;;;;4124283;28;20038;-74
2023/09/09 09:24:56;;;;;;;13.48;8.35;;;29.70;99.40;;;;;;4050413;28;20026;-72
2023/09/09 09:26:58;;;;;;;9.07;7.85;;;29.70;99.40;;;;;;4071297;28;20030;-73
2023/09/09 09:29:05;;;;;;;8.95;7.45;;;29.70;99.60;;;;;;4101420;28;20038;-72
2023/09/09 09:31:19;;;;;;;11.60;8.80;;;29.70;99.30;;;;;;4111880;28;20029;-72
2023/09/09 09:33:24;;;;;;;10.85;7.28;;;29.80;99.50;;;;;;4124079;28;20054;-73
2023/09/09 09:35:27;;;;;;;10.40;7.60;;;29.80;99.80;;;;;;4126373;28;20046;-72
2023/09/09 09:37:28;;;;;;;8.98;7.38;;;29.80;99.80;;;;;;4132306;28;20041;-74
2023/09/09 09:39:35;;;;;;;9.15;7.13;;;29.90;99.90;;;;;;4125072;28;20092;-73
2023/09/09 09:41:38;;;;;;;10.02;6.90;;;29.90;99.90;;;;;;4098841;28;20159;-74
2023/09/09 09:43:39;;;;;;;9.45;7.28;;;30.00;99.90;;;;;;4042600;28;20040;-73
2023/09/09 09:45:40;;;;;;;11.65;8.23;;;30.00;99.90;;;;;;4064591;28;20049;-71
2023/09/09 09:47:47;;;;;;;9.10;7.45;;;30.10;99.60;;;;;;4048954;28;20074;-73
2023/09/09 09:49:51;;;;;;;9.23;7.00;;;30.20;99.40;;;;;;4059404;28;20046;-74
2023/09/09 09:51:52;;;;;;;11.32;8.35;;;30.20;99.70;;;;;;4110576;28;20037;-73
2023/09/09 09:53:53;;;;;;;13.82;10.88;;;30.20;99.90;;;;;;4132969;28;20030;-70
2023/09/09 09:55:55;;;;;;;11.68;8.35;;;30.20;99.90;;;;;;4133281;28;20037;-71
2023/09/09 09:58:02;;;;;;;10.90;8.48;;;30.30;99.70;;;;;;4137648;28;20053;-72
2023/09/09 10:00:06;;;;;;;12.15;8.50;;;30.30;99.80;;;;;;4137579;28;20494;-70
2023/09/09 10:02:09;;;;;;;13.45;9.52;;;30.30;99.30;;;;;;4139473;28;20034;-73
2023/09/09 10:04:12;;;;;;;8.98;7.72;;;30.30;99.10;;;;;;4141164;28;20112;-73
2023/09/09 10:06:18;;;;;;;8.30;6.80;;;30.30;99.40;;;;;;4144999;28;20034;-73
2023/09/09 10:08:31;;;;;;;8.75;7.57;;;30.40;99.40;;;;;;4150797;28;20033;-72
2023/09/09 10:10:35;;;;;;;16.23;12.15;;;30.40;99.20;;;;;;4138325;28;20034;-73
2023/09/09 10:12:45;;;;;;;15.40;10.85;;;30.50;99.10;;;;;;4135000;28;20077;-73
2023/09/09 10:14:49;;;;;;;13.45;10.70;;;30.40;99.10;;;;;;4138221;28;20069;-74
2023/09/09 10:16:52;;;;;;;14.90;10.55;;;30.40;99.00;;;;;;4134197;28;20486;-73
2023/09/09 10:18:54;;;;;;;16.02;12.52;;;30.40;98.80;;;;;;4136299;28;20148;-72
2023/09/09 10:20:56;;;;;;;13.43;11.18;;;30.40;98.90;;;;;;4136321;28;20034;-71
2023/09/09 10:22:59;;;;;;;9.35;7.72;;;30.40;98.90;;;;;;4137952;28;20062;-69
2023/09/09 10:25:05;;;;;;;14.15;10.45;;;30.40;98.90;;;;;;4130167;28;20041;-74
2023/09/09 10:27:06;;;;;;;11.68;9.50;;;30.40;99.00;;;;;;4128977;28;20039;-74
2023/09/09 10:29:08;;;;;;;13.63;10.30;;;30.40;99.10;;;;;;4125367;28;20041;-66
2023/09/09 10:31:12;;;;;;;11.55;9.30;;;30.40;98.90;;;;;;4128860;28;20486;-67
2023/09/09 10:33:14;;;;;;;13.80;10.52;;;30.40;99.40;;;;;;4131203;28;20529;-66
2023/09/09 10:35:17;;;;;;;13.52;10.82;;;30.50;99.50;;;;;;4127802;28;20030;-66